createdAt,value
2019-04-01T00:00:48.541Z,100651.34
2019-04-01T00:03:17.821Z,100651.30
2019-04-01T00:05:46.852Z,100646.91
2019-04-01T00:08:16.061Z,100645.11
2019-04-01T00:10:45.254Z,100642.02
2019-04-01T00:13:14.419Z,100643.67
2019-04-01T00:15:43.520Z,100641.03
2019-04-01T00:18:12.643Z,100636.50
2019-04-01T00:20:41.857Z,100637.44
2019-04-01T00:23:11.189Z,100632.22
2019-04-01T00:25:40.410Z,100633.40
2019-04-01T00:28:09.529Z,100637.27
2019-04-01T00:30:38.731Z,100635.47
2019-04-01T00:33:07.871Z,100636.72
2019-04-01T00:35:37.070Z,100641.35
2019-04-01T00:38:06.215Z,100635.78
2019-04-01T00:40:35.312Z,100642.11
2019-04-01T00:43:23.863Z,100640.77
2019-04-01T00:45:53.420Z,100636.89
2019-04-01T00:48:22.646Z,100639.87
2019-04-01T00:50:51.806Z,100635.91
2019-04-01T00:53:20.961Z,100633.27
2019-04-01T00:55:50.059Z,100638.42
2019-04-01T00:58:19.191Z,100637.56
2019-04-01T01:00:48.380Z,100626.21
2019-04-01T01:03:17.517Z,100636.22
2019-04-01T01:05:46.661Z,100635.31
2019-04-01T01:08:15.780Z,100637.02
2019-04-01T01:10:44.879Z,100633.06
2019-04-01T01:13:14.015Z,100635.67
2019-04-01T01:15:43.160Z,100629.38
2019-04-01T01:18:12.311Z,100630.22
2019-04-01T01:20:41.454Z,100630.17
2019-04-01T01:23:10.593Z,100624.47
2019-04-01T01:25:39.749Z,100621.87
2019-04-01T01:28:08.961Z,100627.08
2019-04-01T01:30:38.063Z,100619.61
2019-04-01T01:33:07.219Z,100617.45
2019-04-01T01:35:36.350Z,100621.27
2019-04-01T01:38:05.512Z,100617.71
2019-04-01T01:40:34.616Z,100616.41
2019-04-01T01:43:03.718Z,100619.41
2019-04-01T01:45:32.861Z,100627.52
2019-04-01T01:48:01.991Z,100618.42
2019-04-01T01:50:31.105Z,100618.27
2019-04-01T01:53:00.209Z,100613.91
2019-04-01T01:55:29.388Z,100608.27
2019-04-01T01:57:58.744Z,100608.88
2019-04-01T02:00:28.779Z,100607.17
2019-04-01T02:02:57.909Z,100608.02
2019-04-01T02:05:27.030Z,100606.27
2019-04-01T02:07:56.184Z,100607.02
2019-04-01T02:10:25.311Z,100601.66
2019-04-01T02:12:54.445Z,100606.30
2019-04-01T02:15:23.584Z,100600.15
2019-04-01T02:17:52.664Z,100604.05
2019-04-01T02:20:21.889Z,100600.44
2019-04-01T02:22:51.020Z,100597.31
2019-04-01T02:25:20.187Z,100595.47
2019-04-01T02:27:49.331Z,100595.95
2019-04-01T02:30:18.512Z,100594.56
2019-04-01T02:32:47.624Z,100593.70
2019-04-01T02:35:16.759Z,100595.47
2019-04-01T02:37:45.847Z,100590.14
2019-04-01T02:40:15.045Z,100585.75
2019-04-01T02:42:44.139Z,100601.23
2019-04-01T02:45:13.290Z,100595.25
2019-04-01T02:47:42.416Z,100591.22
2019-04-01T02:50:11.562Z,100596.19
2019-04-01T02:52:40.678Z,100595.41
2019-04-01T02:55:09.842Z,100593.27
2019-04-01T02:57:39.025Z,100594.11
2019-04-01T03:00:08.255Z,100591.52
2019-04-01T03:02:37.463Z,100585.30
2019-04-01T03:05:07.131Z,100593.55
2019-04-01T03:07:36.314Z,100583.02
2019-04-01T03:10:05.518Z,100591.22
2019-04-01T03:12:34.839Z,100585.41
2019-04-01T03:15:04.127Z,100585.80
2019-04-01T03:17:33.274Z,100579.75
2019-04-01T03:20:02.424Z,100586.18
2019-04-01T03:22:31.558Z,100584.78
2019-04-01T03:25:00.744Z,100579.59
2019-04-01T03:27:29.812Z,100582.17
2019-04-01T03:29:58.957Z,100577.72
2019-04-01T03:32:28.115Z,100583.36
2019-04-01T03:34:57.252Z,100583.34
2019-04-01T03:37:26.399Z,100575.96
2019-04-01T03:39:55.506Z,100578.48
2019-04-01T03:42:24.625Z,100578.03
2019-04-01T03:44:55.355Z,100576.75
2019-04-01T03:47:24.720Z,100577.53
2019-04-01T03:49:53.845Z,100574.88
2019-04-01T03:52:23.122Z,100569.62
2019-04-01T03:54:52.266Z,100570.34
2019-04-01T03:57:21.529Z,100572.02
2019-04-01T03:59:50.636Z,100568.58
2019-04-01T04:02:19.837Z,100566.32
2019-04-01T04:04:49.015Z,100570.81
2019-04-01T04:07:18.166Z,100571.80
2019-04-01T04:09:47.236Z,100578.27
2019-04-01T04:12:16.371Z,100561.85
2019-04-01T04:14:45.664Z,100567.45
2019-04-01T04:17:14.806Z,100567.78
2019-04-01T04:19:43.943Z,100564.38
2019-04-01T04:22:13.133Z,100559.64
2019-04-01T04:24:42.285Z,100563.89
2019-04-01T04:27:11.758Z,100555.17
2019-04-01T04:29:40.865Z,100561.16
2019-04-01T04:32:10.024Z,100561.09
2019-04-01T04:34:39.181Z,100556.80
2019-04-01T04:37:08.397Z,100559.34
2019-04-01T04:39:37.555Z,100565.42
2019-04-01T04:42:06.794Z,100562.14
2019-04-01T04:44:35.953Z,100566.47
2019-04-01T04:47:05.113Z,100564.23
2019-04-01T04:49:34.272Z,100565.52
2019-04-01T04:52:04.733Z,100563.83
2019-04-01T04:54:34.119Z,100557.27
2019-04-01T04:57:03.489Z,100553.84
2019-04-01T04:59:32.659Z,100555.91
2019-04-01T05:02:01.844Z,100557.67
2019-04-01T05:04:31.026Z,100558.13
2019-04-01T05:07:00.110Z,100553.37
2019-04-01T05:09:29.230Z,100559.02
2019-04-01T05:11:58.471Z,100555.07
2019-04-01T05:14:27.623Z,100562.02
2019-04-01T05:16:56.824Z,100561.61
2019-04-01T05:19:26.048Z,100553.72
2019-04-01T05:21:55.278Z,100552.07
2019-04-01T05:24:24.579Z,100553.27
2019-04-01T05:26:53.740Z,100558.97
2019-04-01T05:29:22.960Z,100559.93
2019-04-01T05:31:52.074Z,100566.47
2019-04-01T05:34:21.372Z,100557.41
2019-04-01T05:36:50.490Z,100560.13
2019-04-01T05:39:19.600Z,100558.30
2019-04-01T05:41:48.696Z,100563.55
2019-04-01T05:44:18.094Z,100564.41
2019-04-01T05:46:47.239Z,100569.67
2019-04-01T05:49:17.347Z,100568.02
2019-04-01T05:51:46.540Z,100569.90
2019-04-01T05:54:15.730Z,100567.18
2019-04-01T05:56:44.894Z,100561.27
2019-04-01T05:59:14.062Z,100564.78
2019-04-01T06:01:45.364Z,100561.92
2019-04-01T06:04:14.639Z,100563.22
2019-04-01T06:06:43.793Z,100568.99
2019-04-01T06:09:12.885Z,100566.63
2019-04-01T06:11:41.988Z,100570.27
2019-04-01T06:14:11.242Z,100568.56
2019-04-01T06:16:40.375Z,100569.98
2019-04-01T06:19:09.631Z,100576.19
2019-04-01T06:21:38.807Z,100568.44
2019-04-01T06:24:08.027Z,100573.95
2019-04-01T06:26:39.969Z,100574.91
2019-04-01T06:29:09.139Z,100572.10
2019-04-01T06:31:38.363Z,100572.87
2019-04-01T06:34:07.545Z,100569.13
2019-04-01T06:36:38.934Z,100561.77
2019-04-01T06:39:08.293Z,100559.86
2019-04-01T06:41:37.411Z,100554.43
2019-04-01T06:44:06.634Z,100556.80
2019-04-01T06:46:37.129Z,100552.57
2019-04-01T06:49:06.288Z,100556.47
2019-04-01T06:51:35.467Z,100558.95
2019-04-01T06:54:04.583Z,100555.23
2019-04-01T06:56:33.859Z,100555.27
2019-04-01T06:59:05.785Z,100554.88
2019-04-01T07:01:35.749Z,100550.00
2019-04-01T07:04:04.963Z,100546.80
2019-04-01T07:06:34.142Z,100547.06
2019-04-01T07:09:04.907Z,100549.28
2019-04-01T07:11:34.948Z,100550.59
2019-04-01T07:14:04.945Z,100543.03
2019-04-01T07:16:34.187Z,100540.38
2019-04-01T07:19:03.284Z,100538.03
2019-04-01T07:21:32.797Z,100540.27
2019-04-01T07:24:01.972Z,100542.33
2019-04-01T07:26:31.325Z,100538.05
2019-04-01T07:29:00.592Z,100530.69
2019-04-01T07:31:29.815Z,100537.08
2019-04-01T07:33:58.975Z,100440.70
2019-04-01T07:36:28.988Z,100533.42
2019-04-01T07:38:58.124Z,100531.21
2019-04-01T07:41:28.466Z,100533.97
2019-04-01T07:43:57.695Z,100530.43
2019-04-01T07:46:27.052Z,100519.64
2019-04-01T07:48:56.364Z,100527.84
2019-04-01T07:51:25.690Z,100528.87
2019-04-01T07:53:54.826Z,100527.23
2019-04-01T07:56:24.847Z,100529.98
2019-04-01T07:58:54.045Z,100523.83
2019-04-01T08:01:23.239Z,100524.78
2019-04-01T08:03:52.374Z,100522.06
2019-04-01T08:06:21.598Z,100522.83
2019-04-01T08:08:50.699Z,100518.20
2019-04-01T08:11:19.917Z,100515.88
2019-04-01T08:13:49.002Z,100516.66
2019-04-01T08:16:18.153Z,100519.28
2019-04-01T08:18:47.306Z,100519.08
2019-04-01T08:21:16.445Z,100509.33
2019-04-01T08:23:45.531Z,100510.44
2019-04-01T08:26:14.739Z,100511.69
2019-04-01T08:28:43.848Z,100510.31
2019-04-01T08:31:13.511Z,100507.05
2019-04-01T08:33:42.689Z,100501.84
2019-04-01T08:36:11.877Z,100506.73
2019-04-01T08:38:41.482Z,100506.00
2019-04-01T08:41:10.892Z,100502.30
2019-04-01T08:43:40.223Z,100493.47
2019-04-01T08:46:09.676Z,100492.91
2019-04-01T08:48:39.037Z,100494.19
2019-04-01T08:51:08.464Z,100494.19
2019-04-01T08:53:37.894Z,100485.33
2019-04-01T08:56:07.235Z,100484.95
2019-04-01T08:58:36.567Z,100487.71
2019-04-01T09:01:05.875Z,100482.88
2019-04-01T09:03:35.522Z,100479.08
2019-04-01T09:06:05.138Z,100474.80
2019-04-01T09:08:34.807Z,100472.41
2019-04-01T09:11:04.199Z,100469.17
2019-04-01T09:13:33.675Z,100470.33
2019-04-01T09:16:03.013Z,100467.98
2019-04-01T09:18:32.540Z,100464.41
2019-04-01T09:21:02.109Z,100456.68
2019-04-01T09:23:31.763Z,100453.97
2019-04-01T09:26:01.399Z,100457.48
2019-04-01T09:28:30.878Z,100450.95
2019-04-01T09:31:00.262Z,100449.73
2019-04-01T09:33:29.636Z,100452.52
2019-04-01T09:35:59.038Z,100444.00
2019-04-01T09:38:29.286Z,100442.66
2019-04-01T09:40:58.667Z,100441.00
2019-04-01T09:43:27.903Z,100439.98
2019-04-01T09:45:57.102Z,100432.19
2019-04-01T09:48:26.338Z,100437.34
2019-04-01T09:50:55.566Z,100432.42
2019-04-01T09:53:24.805Z,100426.60
2019-04-01T09:55:53.949Z,100426.24
2019-04-01T09:58:23.208Z,100429.44
2019-04-01T10:00:53.390Z,100426.59
2019-04-01T10:03:22.776Z,100423.09
2019-04-01T10:05:52.008Z,100421.92
2019-04-01T10:08:21.319Z,100410.15
2019-04-01T10:10:50.490Z,100401.66
2019-04-01T10:13:19.686Z,100399.34
2019-04-01T10:15:48.852Z,100402.97
2019-04-01T10:18:18.071Z,100400.41
2019-04-01T10:20:47.320Z,100387.30
2019-04-01T10:23:16.810Z,100387.25
2019-04-01T10:25:46.088Z,100384.01
2019-04-01T10:28:15.328Z,100391.22
2019-04-01T12:57:41.371Z,100196.87
2019-04-01T13:07:12.946Z,100183.33
2019-04-01T13:13:15.594Z,100174.29
2019-04-01T13:15:57.783Z,100180.20
2019-04-01T13:18:26.967Z,100159.84
2019-04-01T13:20:56.106Z,100159.05
2019-04-01T13:23:25.213Z,100145.65
2019-04-01T13:25:54.418Z,100141.66
2019-04-01T13:28:24.125Z,100146.67
2019-04-01T13:30:53.268Z,100137.66
2019-04-01T13:33:22.422Z,100128.67
2019-04-01T13:35:52.737Z,100129.77
2019-04-01T13:38:22.020Z,100131.07
2019-04-01T13:40:51.182Z,100124.38
2019-04-01T13:43:20.435Z,100114.19
2019-04-01T13:45:50.372Z,100111.02
2019-04-01T13:48:19.892Z,100107.77
2019-04-01T13:50:49.060Z,100106.25
2019-04-01T13:53:18.283Z,100111.67
2019-04-01T13:55:50.416Z,100100.42
2019-04-01T13:58:19.704Z,100100.18
2019-04-01T14:00:49.703Z,100096.05
2019-04-01T14:03:22.072Z,100087.17
2019-04-01T14:06:18.390Z,100079.62
2019-04-01T14:08:50.494Z,100078.86
2019-04-01T14:11:23.889Z,100080.25
2019-04-01T14:13:55.787Z,100070.06
2019-04-01T14:16:28.291Z,100068.84
2019-04-01T14:18:59.332Z,100066.55
2019-04-01T14:21:31.331Z,100069.43
2019-04-01T14:24:01.952Z,100060.81
2019-04-01T14:26:31.957Z,100060.05
2019-04-01T14:29:03.205Z,100058.36
2019-04-01T14:31:36.900Z,100050.76
2019-04-01T14:34:13.050Z,100048.55
2019-04-01T14:36:38.394Z,100036.94
2019-04-01T14:39:07.861Z,100038.91
2019-04-01T14:41:37.041Z,100029.88
2019-04-01T14:44:06.208Z,100027.27
2019-04-01T14:46:35.422Z,100027.88
2019-04-01T14:49:04.710Z,100033.09
2019-04-01T14:51:33.811Z,100015.73
2019-04-01T14:54:03.010Z,100018.20
2019-04-01T14:56:32.175Z,100013.23
2019-04-01T14:59:01.388Z,100018.22
2019-04-01T15:01:30.563Z,100004.20
2019-04-01T15:03:59.746Z,99999.95
2019-04-01T15:06:29.282Z,100005.08
2019-04-01T15:08:58.526Z,99996.03
2019-04-01T15:11:27.661Z,99991.56
2019-04-01T15:13:59.927Z,99995.89
2019-04-01T15:16:27.774Z,99887.75
2019-04-01T15:18:57.021Z,99984.73
2019-04-01T15:21:26.377Z,99982.02
2019-04-01T15:23:55.489Z,99983.26
2019-04-01T15:26:24.770Z,99985.61
2019-04-01T15:28:53.918Z,99973.88
2019-04-01T15:31:23.049Z,99968.94
2019-04-01T15:33:52.164Z,99957.31
2019-04-01T15:36:21.388Z,99954.44
2019-04-01T15:38:51.086Z,99951.27
2019-04-01T15:41:20.575Z,99953.55
2019-04-01T15:43:49.711Z,99949.97
2019-04-01T15:46:18.936Z,99946.70
2019-04-01T15:48:48.274Z,99943.55
2019-04-01T15:51:17.667Z,99935.67
2019-04-01T15:53:46.805Z,99935.84
2019-04-01T15:56:15.951Z,99933.44
2019-04-01T15:58:45.063Z,99927.78
2019-04-01T16:01:14.329Z,99933.63
2019-04-01T16:03:43.430Z,99928.57
2019-04-01T16:06:12.613Z,99919.37
2019-04-01T16:08:41.817Z,99924.98
2019-04-01T16:11:11.066Z,99918.83
2019-04-01T16:13:40.207Z,99916.41
2019-04-01T16:16:09.361Z,99913.11
2019-04-01T16:18:38.447Z,99907.99
2019-04-01T16:21:07.926Z,99903.27
2019-04-01T16:23:37.102Z,99906.95
2019-04-01T16:26:09.351Z,99900.52
2019-04-01T16:28:37.261Z,99895.39
2019-04-01T16:31:06.810Z,99897.66
2019-04-01T16:33:36.069Z,99899.65
2019-04-01T16:36:06.570Z,99899.25
2019-04-01T16:38:36.555Z,99900.78
2019-04-01T16:41:05.678Z,99900.39
2019-04-01T16:43:38.057Z,99900.91
2019-04-01T16:46:05.677Z,99899.59
2019-04-01T16:48:34.801Z,99897.75
2019-04-01T16:51:03.970Z,99897.55
2019-04-01T16:53:33.142Z,99893.34
2019-04-01T16:56:02.240Z,99891.01
2019-04-01T16:58:31.914Z,99899.98
2019-04-01T17:01:02.612Z,99901.84
2019-04-01T17:03:31.898Z,99887.89
2019-04-01T17:06:01.075Z,99897.16
2019-04-01T17:08:30.285Z,99896.45
2019-04-01T17:10:59.531Z,99893.27
2019-04-01T17:13:30.434Z,99892.42
2019-04-01T17:16:01.552Z,99891.19
2019-04-01T17:18:31.612Z,99889.64
2019-04-01T17:21:00.832Z,99882.34
2019-04-01T17:23:30.776Z,99889.54
2019-04-01T17:26:00.202Z,99888.48
2019-04-01T17:28:29.362Z,99890.02
2019-04-01T17:30:58.581Z,99891.95
2019-04-01T17:33:28.717Z,99888.67
2019-04-01T17:35:57.973Z,99886.23
2019-04-01T17:38:27.147Z,99889.97
2019-04-01T17:40:56.255Z,99908.18
2019-04-01T17:43:25.475Z,99888.13
2019-04-01T17:45:54.622Z,99887.97
2019-04-01T17:48:23.806Z,99886.97
2019-04-01T17:50:52.922Z,99887.56
2019-04-01T17:53:22.301Z,99887.36
2019-04-01T17:55:51.507Z,99881.42
2019-04-01T17:58:20.607Z,99880.48
2019-04-01T18:00:57.829Z,99881.68
2019-04-01T18:03:26.943Z,99880.47
2019-04-01T18:05:56.079Z,99877.61
2019-04-01T18:08:25.286Z,99878.72
2019-04-01T18:10:54.389Z,99876.84
2019-04-01T18:13:23.575Z,99877.03
2019-04-01T18:15:52.698Z,99874.60
2019-04-01T18:18:26.958Z,99873.05
2019-04-01T18:20:53.302Z,99879.47
2019-04-01T18:23:22.551Z,99872.20
2019-04-01T18:25:51.654Z,99873.76
2019-04-01T18:28:20.807Z,99872.55
2019-04-01T18:30:50.177Z,99870.11
2019-04-01T18:33:20.050Z,99879.48
2019-04-01T18:35:49.510Z,99874.41
2019-04-01T18:38:18.840Z,99876.67
2019-04-01T18:40:48.107Z,99874.27
2019-04-01T18:43:19.628Z,99877.03
2019-04-01T18:45:49.105Z,99874.16
2019-04-01T18:48:19.483Z,99872.14
2019-04-01T18:50:49.184Z,99874.09
2019-04-01T18:53:18.644Z,99875.48
2019-04-01T18:55:48.136Z,99870.90
2019-04-01T18:58:17.466Z,99884.75
2019-04-01T19:00:47.270Z,99872.99
2019-04-01T19:03:19.879Z,99874.44
2019-04-01T19:05:49.175Z,99872.77
2019-04-01T19:08:18.677Z,99869.05
2019-04-01T19:11:02.171Z,99871.81
2019-04-01T19:13:26.631Z,99873.30
2019-04-01T19:15:56.645Z,99871.72
2019-04-01T19:18:26.206Z,99869.63
2019-04-01T19:20:57.111Z,99871.94
2019-04-01T19:23:26.172Z,99874.69
2019-04-01T19:25:55.525Z,99872.66
2019-04-01T19:28:24.590Z,99866.25
2019-04-01T19:30:53.727Z,99868.60
2019-04-01T19:33:22.957Z,99866.59
2019-04-01T19:35:52.051Z,99863.68
2019-04-01T19:38:21.557Z,99864.69
2019-04-01T19:40:51.291Z,99865.27
2019-04-01T19:43:21.221Z,99860.15
2019-04-01T19:45:50.807Z,99866.81
2019-04-01T19:48:19.935Z,99861.67
2019-04-01T19:50:49.037Z,99862.27
2019-04-01T19:53:18.181Z,99864.09
2019-04-01T19:55:47.345Z,99863.80
2019-04-01T19:58:16.533Z,99861.23
2019-04-01T20:00:45.624Z,99863.55
2019-04-01T20:03:14.900Z,99867.19
2019-04-01T20:05:44.058Z,99865.53
2019-04-01T20:08:14.213Z,99856.37
2019-04-01T20:10:43.424Z,99857.78
2019-04-01T20:13:12.537Z,99857.00
2019-04-01T20:15:41.741Z,99864.91
2019-04-01T20:18:10.857Z,99857.11
2019-04-01T20:20:41.638Z,99856.30
2019-04-01T20:23:11.003Z,99854.22
2019-04-01T20:25:40.061Z,99850.36
2019-04-01T20:28:09.216Z,99844.31
2019-04-01T20:30:38.494Z,99847.91
2019-04-01T20:33:17.752Z,99848.00
2019-04-01T20:35:38.590Z,99843.33
2019-04-01T20:38:07.681Z,99837.66
2019-04-01T20:40:36.761Z,99841.61
2019-04-01T20:43:05.939Z,99840.77
2019-04-01T20:45:35.076Z,99833.72
2019-04-01T20:48:04.488Z,99831.56
2019-04-01T20:50:33.963Z,99827.13
2019-04-01T20:53:03.093Z,99822.22
2019-04-01T20:55:32.198Z,99813.06
2019-04-01T20:58:01.343Z,99817.32
2019-04-01T21:00:30.582Z,99821.20
2019-04-01T21:03:01.085Z,99808.44
2019-04-01T21:05:30.372Z,99811.88
2019-04-01T21:07:59.681Z,99815.29
2019-04-01T21:10:28.794Z,99811.30
2019-04-01T21:12:57.923Z,99810.01
2019-04-01T21:15:27.002Z,99807.72
2019-04-01T21:17:56.123Z,99805.14
2019-04-01T21:20:25.231Z,99799.00
2019-04-01T21:22:54.439Z,99798.52
2019-04-01T21:25:23.519Z,99799.47
2019-04-01T21:27:53.373Z,99795.15
2019-04-01T21:30:22.601Z,99794.25
2019-04-01T21:32:51.722Z,99789.87
2019-04-01T21:35:20.817Z,99789.87
2019-04-01T21:37:49.930Z,99781.98
2019-04-01T21:40:19.191Z,99774.10
2019-04-01T21:42:48.397Z,99776.32
2019-04-01T21:45:17.467Z,99779.36
2019-04-01T21:47:46.615Z,99785.48
2019-04-01T21:50:15.943Z,99779.34
2019-04-01T21:52:45.063Z,99775.42
2019-04-01T21:55:14.160Z,99781.58
2019-04-01T21:57:43.379Z,99771.06
2019-04-01T22:00:14.053Z,99769.80
2019-04-01T22:02:44.134Z,99763.66
2019-04-01T22:05:13.703Z,99767.17
2019-04-01T22:07:44.075Z,99760.14
2019-04-01T22:10:13.378Z,99762.83
2019-04-01T22:12:42.499Z,99758.06
2019-04-01T22:15:11.624Z,99752.80
2019-04-01T22:17:42.010Z,99754.22
2019-04-01T22:20:11.136Z,99747.66
2019-04-01T22:22:40.310Z,99749.89
2019-04-01T22:25:09.507Z,99747.72
2019-04-01T22:27:38.618Z,99743.80
2019-04-01T22:30:08.030Z,99747.75
2019-04-01T22:32:37.126Z,99737.75
2019-04-01T22:35:07.959Z,99737.30
2019-04-01T22:37:38.409Z,99732.49
2019-04-01T22:40:07.859Z,99736.91
2019-04-01T22:42:36.973Z,99734.87
2019-04-01T22:45:06.414Z,99725.16
2019-04-01T22:47:35.516Z,99716.45
2019-04-01T22:50:04.799Z,99722.97
2019-04-01T22:52:35.238Z,99713.94
2019-04-01T22:55:05.170Z,99726.10
2019-04-01T22:57:34.281Z,99712.59
2019-04-01T23:00:03.400Z,99703.09
2019-04-01T23:02:40.097Z,99700.62
2019-04-01T23:05:09.816Z,99699.24
2019-04-01T23:07:39.941Z,99695.30
2019-04-01T23:10:09.054Z,99690.02
2019-04-01T23:12:38.167Z,99697.03
2019-04-01T23:15:07.715Z,99696.23
2019-04-01T23:17:38.278Z,99684.90
2019-04-01T23:20:08.000Z,99686.63
2019-04-01T23:22:37.160Z,99687.94
2019-04-01T23:25:06.355Z,99685.80
2019-04-01T23:27:35.410Z,99680.94
2019-04-01T23:30:06.692Z,99680.55
2019-04-01T23:32:35.784Z,99675.75
2019-04-01T23:35:05.007Z,99683.23
2019-04-01T23:37:34.124Z,99681.52
2019-04-01T23:40:03.459Z,99680.20
2019-04-01T23:42:32.873Z,99673.22
2019-04-01T23:45:01.993Z,99678.56
2019-04-01T23:47:31.091Z,99667.56
2019-04-01T23:50:00.215Z,99667.23
2019-04-01T23:52:29.339Z,99662.33
2019-04-01T23:54:59.228Z,99660.25
2019-04-01T23:57:29.250Z,99656.27
2019-04-01T23:59:58.395Z,99656.75
